Tarryall, Colorado
Current Conditions -  °F | °C
As of 1:35 PM on Thursday 27 Nov 2014 (Local Time) from K4BM Reporting Station
Clear Clear  
Wind Chill: 32°   Ceiling: Unl
Heat Index: 41°   Visibility: 10mi
Dew Point:   Wind: 20mph
Humidity: 26%   Direction: 280°W
Pressure: 30.42"   Gusts: 30mph
Location:  39.1071°N, 105.506°W
Report Text: K4BM 272035Z AUTO 28017G26KT 240V300 10SM CLR 05/M13 A3042 RMK AO2
Loading
Personal Weather Stations






























Interactive Weather Map New forecast layout! Learn more

10-Day Weather Forecast

Advertisements
Track Severe Weather on mobile